sensor_id;sensor_type;location;lat;lon;timestamp;P1;durP1;ratioP1;P2;durP2;ratioP2
3704;SDS011;1868;48.918;9.438;2023-01-19T00:01:08;15.40;;;10.70;;
3704;SDS011;1868;48.918;9.438;2023-01-19T00:03:37;16.87;;;10.80;;
3704;SDS011;1868;48.918;9.438;2023-01-19T00:06:06;17.77;;;11.63;;
3704;SDS011;1868;48.918;9.438;2023-01-19T00:08:35;19.40;;;11.53;;
3704;SDS011;1868;48.918;9.438;2023-01-19T00:11:04;20.33;;;11.80;;
3704;SDS011;1868;48.918;9.438;2023-01-19T00:13:33;15.10;;;10.30;;
3704;SDS011;1868;48.918;9.438;2023-01-19T00:16:01;16.13;;;9.70;;
3704;SDS011;1868;48.918;9.438;2023-01-19T00:18:29;14.80;;;9.70;;
3704;SDS011;1868;48.918;9.438;2023-01-19T00:20:59;14.07;;;9.33;;
3704;SDS011;1868;48.918;9.438;2023-01-19T00:23:27;16.23;;;9.60;;
3704;SDS011;1868;48.918;9.438;2023-01-19T00:25:55;12.93;;;8.60;;
3704;SDS011;1868;48.918;9.438;2023-01-19T00:28:24;14.83;;;9.60;;
3704;SDS011;1868;48.918;9.438;2023-01-19T00:30:52;13.10;;;7.87;;
3704;SDS011;1868;48.918;9.438;2023-01-19T00:33:20;15.97;;;8.70;;
3704;SDS011;1868;48.918;9.438;2023-01-19T00:35:49;16.13;;;9.10;;
3704;SDS011;1868;48.918;9.438;2023-01-19T00:38:20;14.43;;;8.93;;
3704;SDS011;1868;48.918;9.438;2023-01-19T00:40:48;10.67;;;7.37;;
3704;SDS011;1868;48.918;9.438;2023-01-19T00:43:16;11.63;;;6.33;;
3704;SDS011;1868;48.918;9.438;2023-01-19T00:45:44;9.53;;;6.20;;
3704;SDS011;1868;48.918;9.438;2023-01-19T00:48:13;12.40;;;6.43;;
3704;SDS011;1868;48.918;9.438;2023-01-19T00:50:41;11.87;;;7.43;;
3704;SDS011;1868;48.918;9.438;2023-01-19T00:53:09;11.70;;;6.90;;
3704;SDS011;1868;48.918;9.438;2023-01-19T00:55:39;10.50;;;6.30;;
3704;SDS011;1868;48.918;9.438;2023-01-19T00:58:07;9.60;;;7.10;;
3704;SDS011;1868;48.918;9.438;2023-01-19T01:00:36;11.00;;;6.43;;
3704;SDS011;1868;48.918;9.438;2023-01-19T01:03:04;11.17;;;7.00;;
3704;SDS011;1868;48.918;9.438;2023-01-19T01:05:32;11.77;;;6.63;;
3704;SDS011;1868;48.918;9.438;2023-01-19T01:08:01;8.87;;;6.57;;
3704;SDS011;1868;48.918;9.438;2023-01-19T01:10:29;9.57;;;7.20;;
3704;SDS011;1868;48.918;9.438;2023-01-19T01:12:58;11.73;;;6.83;;
3704;SDS011;1868;48.918;9.438;2023-01-19T01:15:48;9.30;;;6.43;;
3704;SDS011;1868;48.918;9.438;2023-01-19T01:18:17;16.27;;;6.80;;
3704;SDS011;1868;48.918;9.438;2023-01-19T01:20:46;6.83;;;5.60;;
3704;SDS011;1868;48.918;9.438;2023-01-19T01:23:15;8.80;;;6.13;;
3704;SDS011;1868;48.918;9.438;2023-01-19T01:25:48;12.33;;;7.90;;
3704;SDS011;1868;48.918;9.438;2023-01-19T01:28:18;10.67;;;7.57;;
3704;SDS011;1868;48.918;9.438;2023-01-19T01:30:46;11.23;;;7.20;;
3704;SDS011;1868;48.918;9.438;2023-01-19T01:33:14;9.17;;;6.47;;
3704;SDS011;1868;48.918;9.438;2023-01-19T01:36:03;7.60;;;5.70;;
3704;SDS011;1868;48.918;9.438;2023-01-19T01:38:32;7.47;;;6.33;;
3704;SDS011;1868;48.918;9.438;2023-01-19T01:41:00;8.23;;;6.70;;
3704;SDS011;1868;48.918;9.438;2023-01-19T01:43:41;6.70;;;5.87;;
3704;SDS011;1868;48.918;9.438;2023-01-19T01:46:12;10.57;;;7.87;;
3704;SDS011;1868;48.918;9.438;2023-01-19T01:48:43;8.57;;;6.50;;
3704;SDS011;1868;48.918;9.438;2023-01-19T01:51:21;17.23;;;7.80;;
3704;SDS011;1868;48.918;9.438;2023-01-19T01:53:57;11.63;;;7.57;;
3704;SDS011;1868;48.918;9.438;2023-01-19T01:56:34;14.13;;;7.90;;
3704;SDS011;1868;48.918;9.438;2023-01-19T01:59:07;14.30;;;9.33;;
3704;SDS011;1868;48.918;9.438;2023-01-19T02:01:51;11.70;;;7.90;;
3704;SDS011;1868;48.918;9.438;2023-01-19T02:04:42;15.73;;;8.97;;
3704;SDS011;1868;48.918;9.438;2023-01-19T02:07:16;13.40;;;9.63;;
3704;SDS011;1868;48.918;9.438;2023-01-19T02:10:11;17.60;;;8.90;;
3704;SDS011;1868;48.918;9.438;2023-01-19T02:12:56;12.43;;;8.70;;
3704;SDS011;1868;48.918;9.438;2023-01-19T02:15:46;12.57;;;8.80;;
3704;SDS011;1868;48.918;9.438;2023-01-19T02:18:16;16.37;;;9.97;;
3704;SDS011;1868;48.918;9.438;2023-01-19T02:20:47;12.70;;;8.97;;
3704;SDS011;1868;48.918;9.438;2023-01-19T02:23:30;14.00;;;9.10;;
3704;SDS011;1868;48.918;9.438;2023-01-19T02:26:08;16.77;;;9.20;;
3704;SDS011;1868;48.918;9.438;2023-01-19T02:28:41;12.83;;;8.10;;
3704;SDS011;1868;48.918;9.438;2023-01-19T02:31:13;11.80;;;8.23;;
3704;SDS011;1868;48.918;9.438;2023-01-19T02:33:41;15.53;;;9.97;;
3704;SDS011;1868;48.918;9.438;2023-01-19T02:36:10;11.00;;;8.80;;
3704;SDS011;1868;48.918;9.438;2023-01-19T02:38:44;14.00;;;9.07;;
3704;SDS011;1868;48.918;9.438;2023-01-19T02:41:17;22.87;;;10.73;;
3704;SDS011;1868;48.918;9.438;2023-01-19T02:43:49;15.57;;;8.63;;
3704;SDS011;1868;48.918;9.438;2023-01-19T02:46:19;11.50;;;8.50;;
3704;SDS011;1868;48.918;9.438;2023-01-19T02:48:47;12.63;;;7.93;;
3704;SDS011;1868;48.918;9.438;2023-01-19T02:51:16;11.47;;;8.07;;
3704;SDS011;1868;48.918;9.438;2023-01-19T02:53:52;12.30;;;8.80;;
3704;SDS011;1868;48.918;9.438;2023-01-19T02:56:49;11.80;;;7.50;;
3704;SDS011;1868;48.918;9.438;2023-01-19T02:59:32;10.60;;;7.80;;
3704;SDS011;1868;48.918;9.438;2023-01-19T03:02:21;14.80;;;8.00;;
3704;SDS011;1868;48.918;9.438;2023-01-19T03:05:02;10.73;;;7.27;;
3704;SDS011;1868;48.918;9.438;2023-01-19T03:07:51;11.13;;;7.63;;
3704;SDS011;1868;48.918;9.438;2023-01-19T03:10:30;12.70;;;7.13;;
3704;SDS011;1868;48.918;9.438;2023-01-19T03:13:08;12.47;;;7.73;;
3704;SDS011;1868;48.918;9.438;2023-01-19T03:15:42;11.20;;;7.90;;
3704;SDS011;1868;48.918;9.438;2023-01-19T03:18:17;11.43;;;7.90;;
3704;SDS011;1868;48.918;9.438;2023-01-19T03:20:50;16.07;;;8.20;;
3704;SDS011;1868;48.918;9.438;2023-01-19T03:23:23;11.30;;;7.57;;
3704;SDS011;1868;48.918;9.438;2023-01-19T03:25:57;11.47;;;7.80;;
3704;SDS011;1868;48.918;9.438;2023-01-19T03:28:28;10.47;;;7.30;;
3704;SDS011;1868;48.918;9.438;2023-01-19T03:30:57;10.63;;;8.07;;
3704;SDS011;1868;48.918;9.438;2023-01-19T03:33:31;15.70;;;8.63;;
3704;SDS011;1868;48.918;9.438;2023-01-19T03:36:04;12.90;;;8.00;;
3704;SDS011;1868;48.918;9.438;2023-01-19T03:38:39;12.63;;;7.50;;
3704;SDS011;1868;48.918;9.438;2023-01-19T03:41:12;13.23;;;7.33;;
3704;SDS011;1868;48.918;9.438;2023-01-19T03:43:43;10.63;;;7.40;;
3704;SDS011;1868;48.918;9.438;2023-01-19T03:46:14;11.70;;;8.00;;
3704;SDS011;1868;48.918;9.438;2023-01-19T03:48:44;12.63;;;8.17;;
3704;SDS011;1868;48.918;9.438;2023-01-19T03:51:13;14.90;;;8.80;;
3704;SDS011;1868;48.918;9.438;2023-01-19T03:53:42;11.30;;;8.33;;
3704;SDS011;1868;48.918;9.438;2023-01-19T03:56:15;10.30;;;7.07;;
3704;SDS011;1868;48.918;9.438;2023-01-19T03:58:45;11.30;;;7.50;;
3704;SDS011;1868;48.918;9.438;2023-01-19T04:01:14;10.97;;;7.30;;
3704;SDS011;1868;48.918;9.438;2023-01-19T04:03:48;13.50;;;7.70;;
3704;SDS011;1868;48.918;9.438;2023-01-19T04:06:17;11.93;;;6.87;;
3704;SDS011;1868;48.918;9.438;2023-01-19T04:08:46;13.87;;;8.13;;
3704;SDS011;1868;48.918;9.438;2023-01-19T04:11:18;11.83;;;7.23;;
3704;SDS011;1868;48.918;9.438;2023-01-19T04:13:46;10.70;;;7.57;;
3704;SDS011;1868;48.918;9.438;2023-01-19T04:16:15;10.50;;;7.27;;
3704;SDS011;1868;48.918;9.438;2023-01-19T04:18:45;9.20;;;6.87;;
3704;SDS011;1868;48.918;9.438;2023-01-19T04:21:14;11.43;;;6.73;;
3704;SDS011;1868;48.918;9.438;2023-01-19T04:23:43;15.93;;;7.90;;
3704;SDS011;1868;48.918;9.438;2023-01-19T04:26:11;11.43;;;7.50;;
3704;SDS011;1868;48.918;9.438;2023-01-19T04:28:41;12.70;;;7.73;;
3704;SDS011;1868;48.918;9.438;2023-01-19T04:31:09;13.33;;;8.00;;
3704;SDS011;1868;48.918;9.438;2023-01-19T04:33:38;12.57;;;9.10;;
3704;SDS011;1868;48.918;9.438;2023-01-19T04:36:06;10.60;;;7.63;;
3704;SDS011;1868;48.918;9.438;2023-01-19T04:38:35;10.67;;;7.47;;
3704;SDS011;1868;48.918;9.438;2023-01-19T04:41:04;14.80;;;8.07;;
3704;SDS011;1868;48.918;9.438;2023-01-19T04:43:32;9.90;;;7.90;;
3704;SDS011;1868;48.918;9.438;2023-01-19T04:46:01;12.50;;;7.53;;
3704;SDS011;1868;48.918;9.438;2023-01-19T04:48:30;10.93;;;7.97;;
3704;SDS011;1868;48.918;9.438;2023-01-19T04:50:58;9.33;;;6.70;;
3704;SDS011;1868;48.918;9.438;2023-01-19T04:53:26;9.90;;;7.60;;
3704;SDS011;1868;48.918;9.438;2023-01-19T04:55:55;12.33;;;7.47;;
3704;SDS011;1868;48.918;9.438;2023-01-19T04:58:25;13.60;;;8.80;;
3704;SDS011;1868;48.918;9.438;2023-01-19T05:00:53;13.40;;;9.23;;
3704;SDS011;1868;48.918;9.438;2023-01-19T05:03:22;21.70;;;12.70;;
3704;SDS011;1868;48.918;9.438;2023-01-19T05:05:51;20.07;;;10.70;;
3704;SDS011;1868;48.918;9.438;2023-01-19T05:08:20;11.33;;;7.90;;
3704;SDS011;1868;48.918;9.438;2023-01-19T05:10:48;13.00;;;8.40;;
3704;SDS011;1868;48.918;9.438;2023-01-19T05:13:17;9.53;;;7.47;;
3704;SDS011;1868;48.918;9.438;2023-01-19T05:15:45;13.90;;;8.50;;
3704;SDS011;1868;48.918;9.438;2023-01-19T05:18:13;11.77;;;8.50;;
3704;SDS011;1868;48.918;9.438;2023-01-19T05:20:42;10.60;;;7.13;;
3704;SDS011;1868;48.918;9.438;2023-01-19T05:23:11;14.97;;;7.70;;
3704;SDS011;1868;48.918;9.438;2023-01-19T05:25:39;13.00;;;8.17;;
3704;SDS011;1868;48.918;9.438;2023-01-19T05:28:08;8.83;;;7.13;;
3704;SDS011;1868;48.918;9.438;2023-01-19T05:30:37;9.57;;;7.30;;
3704;SDS011;1868;48.918;9.438;2023-01-19T05:33:05;9.60;;;7.07;;
3704;SDS011;1868;48.918;9.438;2023-01-19T05:35:33;10.40;;;6.93;;
3704;SDS011;1868;48.918;9.438;2023-01-19T05:38:03;11.47;;;6.80;;
3704;SDS011;1868;48.918;9.438;2023-01-19T05:40:31;11.10;;;7.23;;
3704;SDS011;1868;48.918;9.438;2023-01-19T05:43:00;10.33;;;7.60;;
3704;SDS011;1868;48.918;9.438;2023-01-19T05:45:31;11.77;;;8.30;;
3704;SDS011;1868;48.918;9.438;2023-01-19T05:47:59;13.00;;;8.13;;
3704;SDS011;1868;48.918;9.438;2023-01-19T05:50:27;11.10;;;7.70;;
3704;SDS011;1868;48.918;9.438;2023-01-19T05:52:56;11.60;;;7.33;;
3704;SDS011;1868;48.918;9.438;2023-01-19T05:55:27;9.30;;;7.23;;
3704;SDS011;1868;48.918;9.438;2023-01-19T05:57:55;12.27;;;8.47;;
3704;SDS011;1868;48.918;9.438;2023-01-19T06:00:24;15.00;;;9.03;;
3704;SDS011;1868;48.918;9.438;2023-01-19T06:02:52;13.50;;;7.87;;
3704;SDS011;1868;48.918;9.438;2023-01-19T06:05:21;14.00;;;8.70;;
3704;SDS011;1868;48.918;9.438;2023-01-19T06:07:49;12.57;;;7.27;;
3704;SDS011;1868;48.918;9.438;2023-01-19T06:10:17;12.20;;;8.03;;
3704;SDS011;1868;48.918;9.438;2023-01-19T06:12:47;12.33;;;8.87;;
3704;SDS011;1868;48.918;9.438;2023-01-19T06:15:18;17.80;;;8.10;;
3704;SDS011;1868;48.918;9.438;2023-01-19T06:17:46;14.53;;;8.90;;
3704;SDS011;1868;48.918;9.438;2023-01-19T06:20:14;15.67;;;9.73;;
3704;SDS011;1868;48.918;9.438;2023-01-19T06:22:43;13.13;;;9.57;;
3704;SDS011;1868;48.918;9.438;2023-01-19T06:25:13;14.37;;;8.07;;
3704;SDS011;1868;48.918;9.438;2023-01-19T06:27:42;15.00;;;8.27;;
3704;SDS011;1868;48.918;9.438;2023-01-19T06:30:13;13.83;;;8.90;;
3704;SDS011;1868;48.918;9.438;2023-01-19T06:32:42;14.93;;;9.27;;
3704;SDS011;1868;48.918;9.438;2023-01-19T06:35:10;18.37;;;8.83;;
3704;SDS011;1868;48.918;9.438;2023-01-19T06:37:39;17.67;;;9.03;;
3704;SDS011;1868;48.918;9.438;2023-01-19T06:40:08;17.20;;;9.00;;
3704;SDS011;1868;48.918;9.438;2023-01-19T06:42:39;12.23;;;7.97;;
3704;SDS011;1868;48.918;9.438;2023-01-19T06:45:08;12.00;;;8.73;;
3704;SDS011;1868;48.918;9.438;2023-01-19T06:47:38;13.50;;;8.63;;
3704;SDS011;1868;48.918;9.438;2023-01-19T06:50:07;10.80;;;7.80;;
3704;SDS011;1868;48.918;9.438;2023-01-19T06:52:36;11.20;;;8.17;;
3704;SDS011;1868;48.918;9.438;2023-01-19T06:55:07;12.57;;;8.37;;
3704;SDS011;1868;48.918;9.438;2023-01-19T06:57:37;12.10;;;8.10;;
3704;SDS011;1868;48.918;9.438;2023-01-19T07:00:05;12.83;;;8.90;;
3704;SDS011;1868;48.918;9.438;2023-01-19T07:02:37;9.77;;;7.50;;
3704;SDS011;1868;48.918;9.438;2023-01-19T07:05:09;11.60;;;7.37;;
3704;SDS011;1868;48.918;9.438;2023-01-19T07:07:39;12.63;;;7.30;;
3704;SDS011;1868;48.918;9.438;2023-01-19T07:10:10;10.37;;;7.30;;
3704;SDS011;1868;48.918;9.438;2023-01-19T07:12:41;12.77;;;8.33;;
3704;SDS011;1868;48.918;9.438;2023-01-19T07:15:11;20.27;;;11.13;;
3704;SDS011;1868;48.918;9.438;2023-01-19T07:17:42;19.30;;;10.87;;
3704;SDS011;1868;48.918;9.438;2023-01-19T07:20:11;13.60;;;9.13;;
3704;SDS011;1868;48.918;9.438;2023-01-19T07:22:40;13.07;;;9.17;;
3704;SDS011;1868;48.918;9.438;2023-01-19T07:25:11;13.90;;;9.67;;
3704;SDS011;1868;48.918;9.438;2023-01-19T07:27:40;15.10;;;8.80;;
3704;SDS011;1868;48.918;9.438;2023-01-19T07:30:10;15.50;;;9.70;;
3704;SDS011;1868;48.918;9.438;2023-01-19T07:32:42;15.70;;;11.40;;
3704;SDS011;1868;48.918;9.438;2023-01-19T07:35:11;17.53;;;10.37;;
3704;SDS011;1868;48.918;9.438;2023-01-19T07:37:39;12.13;;;8.43;;
3704;SDS011;1868;48.918;9.438;2023-01-19T07:40:08;10.33;;;7.53;;
3704;SDS011;1868;48.918;9.438;2023-01-19T07:42:38;12.73;;;7.43;;
3704;SDS011;1868;48.918;9.438;2023-01-19T07:45:06;11.17;;;7.97;;
3704;SDS011;1868;48.918;9.438;2023-01-19T07:47:35;13.23;;;8.40;;
3704;SDS011;1868;48.918;9.438;2023-01-19T07:50:06;10.13;;;7.30;;
3704;SDS011;1868;48.918;9.438;2023-01-19T07:52:36;11.23;;;8.97;;
3704;SDS011;1868;48.918;9.438;2023-01-19T07:55:04;9.50;;;7.50;;
3704;SDS011;1868;48.918;9.438;2023-01-19T07:57:34;15.60;;;8.03;;
3704;SDS011;1868;48.918;9.438;2023-01-19T08:00:03;9.13;;;6.63;;
3704;SDS011;1868;48.918;9.438;2023-01-19T08:02:40;9.07;;;6.90;;
3704;SDS011;1868;48.918;9.438;2023-01-19T08:05:09;13.17;;;7.60;;
3704;SDS011;1868;48.918;9.438;2023-01-19T08:07:38;20.33;;;11.00;;
3704;SDS011;1868;48.918;9.438;2023-01-19T08:10:07;20.80;;;11.70;;
3704;SDS011;1868;48.918;9.438;2023-01-19T08:12:36;19.73;;;12.30;;
3704;SDS011;1868;48.918;9.438;2023-01-19T08:15:05;19.20;;;11.43;;
3704;SDS011;1868;48.918;9.438;2023-01-19T08:17:34;16.20;;;10.33;;
3704;SDS011;1868;48.918;9.438;2023-01-19T08:20:03;16.50;;;10.40;;
3704;SDS011;1868;48.918;9.438;2023-01-19T08:22:36;18.40;;;12.10;;
3704;SDS011;1868;48.918;9.438;2023-01-19T08:25:04;18.33;;;13.10;;
3704;SDS011;1868;48.918;9.438;2023-01-19T08:27:33;15.27;;;11.13;;
3704;SDS011;1868;48.918;9.438;2023-01-19T08:30:01;16.27;;;11.70;;
3704;SDS011;1868;48.918;9.438;2023-01-19T08:32:30;15.77;;;11.57;;
3704;SDS011;1868;48.918;9.438;2023-01-19T08:34:59;16.90;;;10.83;;
3704;SDS011;1868;48.918;9.438;2023-01-19T08:37:27;16.40;;;12.53;;
3704;SDS011;1868;48.918;9.438;2023-01-19T08:40:00;16.10;;;11.00;;
3704;SDS011;1868;48.918;9.438;2023-01-19T08:42:28;15.27;;;10.90;;
3704;SDS011;1868;48.918;9.438;2023-01-19T08:44:56;16.47;;;11.00;;
3704;SDS011;1868;48.918;9.438;2023-01-19T08:47:25;14.67;;;10.77;;
3704;SDS011;1868;48.918;9.438;2023-01-19T08:49:53;16.37;;;9.83;;
3704;SDS011;1868;48.918;9.438;2023-01-19T08:52:21;12.70;;;9.63;;
3704;SDS011;1868;48.918;9.438;2023-01-19T08:54:52;14.10;;;10.23;;
3704;SDS011;1868;48.918;9.438;2023-01-19T08:57:21;14.57;;;9.27;;
3704;SDS011;1868;48.918;9.438;2023-01-19T08:59:49;14.80;;;10.47;;
3704;SDS011;1868;48.918;9.438;2023-01-19T09:02:18;10.63;;;8.90;;
3704;SDS011;1868;48.918;9.438;2023-01-19T09:04:46;11.90;;;9.27;;
3704;SDS011;1868;48.918;9.438;2023-01-19T09:07:15;11.63;;;8.90;;
3704;SDS011;1868;48.918;9.438;2023-01-19T09:09:45;11.50;;;8.70;;
3704;SDS011;1868;48.918;9.438;2023-01-19T09:12:13;10.93;;;8.40;;
3704;SDS011;1868;48.918;9.438;2023-01-19T09:14:43;13.23;;;8.70;;
3704;SDS011;1868;48.918;9.438;2023-01-19T09:17:11;11.53;;;8.77;;
3704;SDS011;1868;48.918;9.438;2023-01-19T09:19:40;10.03;;;7.10;;
3704;SDS011;1868;48.918;9.438;2023-01-19T09:22:08;10.17;;;8.03;;
3704;SDS011;1868;48.918;9.438;2023-01-19T09:24:36;11.30;;;8.83;;
3704;SDS011;1868;48.918;9.438;2023-01-19T09:27:04;8.57;;;6.60;;
3704;SDS011;1868;48.918;9.438;2023-01-19T09:29:33;7.83;;;6.30;;
3704;SDS011;1868;48.918;9.438;2023-01-19T09:32:03;8.20;;;6.13;;
3704;SDS011;1868;48.918;9.438;2023-01-19T09:34:31;10.33;;;6.93;;
3704;SDS011;1868;48.918;9.438;2023-01-19T09:37:00;6.60;;;5.27;;
3704;SDS011;1868;48.918;9.438;2023-01-19T09:39:29;10.40;;;6.57;;
3704;SDS011;1868;48.918;9.438;2023-01-19T09:41:58;6.77;;;4.73;;
3704;SDS011;1868;48.918;9.438;2023-01-19T09:44:36;10.47;;;6.00;;
3704;SDS011;1868;48.918;9.438;2023-01-19T09:47:12;7.47;;;4.67;;
3704;SDS011;1868;48.918;9.438;2023-01-19T09:49:42;6.10;;;4.57;;
3704;SDS011;1868;48.918;9.438;2023-01-19T09:52:16;6.43;;;4.77;;
3704;SDS011;1868;48.918;9.438;2023-01-19T09:54:46;8.90;;;5.17;;
3704;SDS011;1868;48.918;9.438;2023-01-19T09:57:20;5.70;;;4.13;;
3704;SDS011;1868;48.918;9.438;2023-01-19T09:59:48;4.80;;;4.00;;
3704;SDS011;1868;48.918;9.438;2023-01-19T10:02:27;5.47;;;4.47;;
3704;SDS011;1868;48.918;9.438;2023-01-19T10:05:03;6.60;;;4.60;;
3704;SDS011;1868;48.918;9.438;2023-01-19T10:07:46;15.03;;;5.20;;
3704;SDS011;1868;48.918;9.438;2023-01-19T10:10:31;6.73;;;4.57;;
3704;SDS011;1868;48.918;9.438;2023-01-19T10:16:09;6.23;;;4.13;;
3704;SDS011;1868;48.918;9.438;2023-01-19T10:18:52;3.70;;;3.40;;
3704;SDS011;1868;48.918;9.438;2023-01-19T10:21:25;6.67;;;3.93;;
3704;SDS011;1868;48.918;9.438;2023-01-19T10:23:57;7.30;;;4.70;;
3704;SDS011;1868;48.918;9.438;2023-01-19T10:26:33;4.47;;;4.07;;
3704;SDS011;1868;48.918;9.438;2023-01-19T10:29:05;5.70;;;3.90;;
3704;SDS011;1868;48.918;9.438;2023-01-19T10:31:41;6.47;;;3.87;;
3704;SDS011;1868;48.918;9.438;2023-01-19T10:34:14;6.90;;;3.80;;
3704;SDS011;1868;48.918;9.438;2023-01-19T10:36:48;4.83;;;4.30;;
3704;SDS011;1868;48.918;9.438;2023-01-19T10:39:25;6.70;;;4.53;;
3704;SDS011;1868;48.918;9.438;2023-01-19T10:41:53;6.50;;;4.73;;
3704;SDS011;1868;48.918;9.438;2023-01-19T10:44:33;6.17;;;4.50;;
3704;SDS011;1868;48.918;9.438;2023-01-19T10:47:03;4.97;;;4.30;;
3704;SDS011;1868;48.918;9.438;2023-01-19T10:49:43;4.23;;;3.80;;
3704;SDS011;1868;48.918;9.438;2023-01-19T10:52:18;8.10;;;4.60;;
3704;SDS011;1868;48.918;9.438;2023-01-19T10:54:52;5.50;;;3.87;;
3704;SDS011;1868;48.918;9.438;2023-01-19T10:57:24;12.93;;;4.60;;
3704;SDS011;1868;48.918;9.438;2023-01-19T10:59:55;5.40;;;4.47;;
3704;SDS011;1868;48.918;9.438;2023-01-19T11:02:25;6.83;;;4.30;;
3704;SDS011;1868;48.918;9.438;2023-01-19T11:04:57;4.37;;;3.97;;
3704;SDS011;1868;48.918;9.438;2023-01-19T11:07:28;6.40;;;4.50;;
3704;SDS011;1868;48.918;9.438;2023-01-19T11:10:15;6.63;;;3.57;;
3704;SDS011;1868;48.918;9.438;2023-01-19T11:12:56;13.90;;;3.93;;
3704;SDS011;1868;48.918;9.438;2023-01-19T11:15:30;5.20;;;4.30;;
3704;SDS011;1868;48.918;9.438;2023-01-19T11:18:02;7.63;;;4.33;;
3704;SDS011;1868;48.918;9.438;2023-01-19T11:20:38;8.23;;;3.90;;
3704;SDS011;1868;48.918;9.438;2023-01-19T11:23:21;5.47;;;4.10;;
3704;SDS011;1868;48.918;9.438;2023-01-19T11:25:53;9.93;;;4.20;;
3704;SDS011;1868;48.918;9.438;2023-01-19T11:28:25;6.70;;;4.60;;
3704;SDS011;1868;48.918;9.438;2023-01-19T11:30:56;6.00;;;4.10;;
3704;SDS011;1868;48.918;9.438;2023-01-19T11:33:31;5.37;;;4.20;;
3704;SDS011;1868;48.918;9.438;2023-01-19T11:36:05;5.37;;;4.27;;
3704;SDS011;1868;48.918;9.438;2023-01-19T11:38:41;3.80;;;3.50;;
3704;SDS011;1868;48.918;9.438;2023-01-19T11:41:14;8.17;;;4.13;;
3704;SDS011;1868;48.918;9.438;2023-01-19T11:43:46;4.63;;;4.13;;
3704;SDS011;1868;48.918;9.438;2023-01-19T11:46:18;6.30;;;4.00;;
3704;SDS011;1868;48.918;9.438;2023-01-19T11:48:48;6.20;;;4.13;;
3704;SDS011;1868;48.918;9.438;2023-01-19T11:51:24;4.93;;;3.80;;
3704;SDS011;1868;48.918;9.438;2023-01-19T11:53:58;4.73;;;3.70;;
3704;SDS011;1868;48.918;9.438;2023-01-19T11:56:33;7.80;;;4.27;;
3704;SDS011;1868;48.918;9.438;2023-01-19T11:59:02;4.10;;;3.30;;
3704;SDS011;1868;48.918;9.438;2023-01-19T12:01:30;5.23;;;4.33;;
3704;SDS011;1868;48.918;9.438;2023-01-19T12:04:03;4.23;;;3.67;;
3704;SDS011;1868;48.918;9.438;2023-01-19T12:06:41;4.40;;;3.90;;
3704;SDS011;1868;48.918;9.438;2023-01-19T12:09:14;4.37;;;3.97;;
3704;SDS011;1868;48.918;9.438;2023-01-19T12:11:47;4.60;;;3.70;;
3704;SDS011;1868;48.918;9.438;2023-01-19T12:14:22;6.30;;;4.53;;
3704;SDS011;1868;48.918;9.438;2023-01-19T12:16:56;8.10;;;4.63;;
3704;SDS011;1868;48.918;9.438;2023-01-19T12:19:32;4.77;;;3.60;;
3704;SDS011;1868;48.918;9.438;2023-01-19T12:22:11;9.67;;;3.53;;
3704;SDS011;1868;48.918;9.438;2023-01-19T12:24:44;4.67;;;3.53;;
3704;SDS011;1868;48.918;9.438;2023-01-19T12:27:21;11.00;;;3.50;;
3704;SDS011;1868;48.918;9.438;2023-01-19T12:30:04;9.73;;;3.70;;
3704;SDS011;1868;48.918;9.438;2023-01-19T12:32:43;6.87;;;3.40;;
3704;SDS011;1868;48.918;9.438;2023-01-19T12:38:33;5.67;;;3.83;;
3704;SDS011;1868;48.918;9.438;2023-01-19T12:41:14;6.60;;;4.40;;
3704;SDS011;1868;48.918;9.438;2023-01-19T12:46:47;5.50;;;3.80;;
3704;SDS011;1868;48.918;9.438;2023-01-19T12:49:21;5.30;;;3.50;;
3704;SDS011;1868;48.918;9.438;2023-01-19T12:52:09;9.03;;;4.20;;
3704;SDS011;1868;48.918;9.438;2023-01-19T12:54:55;4.57;;;3.90;;
3704;SDS011;1868;48.918;9.438;2023-01-19T12:57:32;4.20;;;3.80;;
3704;SDS011;1868;48.918;9.438;2023-01-19T13:00:06;7.23;;;3.93;;
3704;SDS011;1868;48.918;9.438;2023-01-19T13:02:55;6.90;;;4.40;;
3704;SDS011;1868;48.918;9.438;2023-01-19T13:08:27;9.80;;;4.10;;
3704;SDS011;1868;48.918;9.438;2023-01-19T13:11:24;14.93;;;4.97;;
3704;SDS011;1868;48.918;9.438;2023-01-19T13:17:05;5.33;;;4.10;;
3704;SDS011;1868;48.918;9.438;2023-01-19T13:23:20;4.73;;;4.00;;
3704;SDS011;1868;48.918;9.438;2023-01-19T13:25:52;7.17;;;4.63;;
3704;SDS011;1868;48.918;9.438;2023-01-19T13:28:31;6.27;;;4.57;;
3704;SDS011;1868;48.918;9.438;2023-01-19T13:31:11;5.80;;;4.93;;
3704;SDS011;1868;48.918;9.438;2023-01-19T13:33:47;6.90;;;4.60;;
3704;SDS011;1868;48.918;9.438;2023-01-19T13:36:20;5.47;;;4.40;;
3704;SDS011;1868;48.918;9.438;2023-01-19T13:38:54;7.40;;;4.67;;
3704;SDS011;1868;48.918;9.438;2023-01-19T13:41:26;11.60;;;3.93;;
3704;SDS011;1868;48.918;9.438;2023-01-19T13:43:59;8.53;;;4.93;;
3704;SDS011;1868;48.918;9.438;2023-01-19T13:46:31;5.60;;;4.53;;
3704;SDS011;1868;48.918;9.438;2023-01-19T13:49:01;6.63;;;4.23;;
3704;SDS011;1868;48.918;9.438;2023-01-19T13:51:36;7.07;;;5.57;;
3704;SDS011;1868;48.918;9.438;2023-01-19T13:54:04;8.23;;;4.73;;
3704;SDS011;1868;48.918;9.438;2023-01-19T13:56:45;7.40;;;5.00;;
3704;SDS011;1868;48.918;9.438;2023-01-19T13:59:16;12.47;;;5.70;;
3704;SDS011;1868;48.918;9.438;2023-01-19T14:01:45;7.97;;;4.80;;
3704;SDS011;1868;48.918;9.438;2023-01-19T14:04:22;5.10;;;4.50;;
3704;SDS011;1868;48.918;9.438;2023-01-19T14:06:53;6.20;;;4.57;;
3704;SDS011;1868;48.918;9.438;2023-01-19T14:09:25;11.77;;;5.53;;
3704;SDS011;1868;48.918;9.438;2023-01-19T14:12:04;8.33;;;5.90;;
3704;SDS011;1868;48.918;9.438;2023-01-19T14:14:38;8.70;;;5.63;;
3704;SDS011;1868;48.918;9.438;2023-01-19T14:19:58;10.47;;;4.67;;
3704;SDS011;1868;48.918;9.438;2023-01-19T14:22:36;9.97;;;5.07;;
3704;SDS011;1868;48.918;9.438;2023-01-19T14:30:57;5.77;;;4.90;;
3704;SDS011;1868;48.918;9.438;2023-01-19T14:33:33;8.73;;;4.97;;
3704;SDS011;1868;48.918;9.438;2023-01-19T14:36:07;7.23;;;5.63;;
3704;SDS011;1868;48.918;9.438;2023-01-19T14:38:41;9.20;;;5.17;;
3704;SDS011;1868;48.918;9.438;2023-01-19T14:41:10;5.10;;;4.47;;
3704;SDS011;1868;48.918;9.438;2023-01-19T14:43:41;6.70;;;4.53;;
3704;SDS011;1868;48.918;9.438;2023-01-19T14:46:15;5.67;;;4.30;;
3704;SDS011;1868;48.918;9.438;2023-01-19T14:48:45;8.33;;;5.60;;
3704;SDS011;1868;48.918;9.438;2023-01-19T14:51:15;6.23;;;4.97;;
3704;SDS011;1868;48.918;9.438;2023-01-19T14:53:46;5.33;;;4.47;;
3704;SDS011;1868;48.918;9.438;2023-01-19T14:56:24;10.70;;;5.27;;
3704;SDS011;1868;48.918;9.438;2023-01-19T14:58:55;7.63;;;6.20;;
3704;SDS011;1868;48.918;9.438;2023-01-19T15:01:27;10.50;;;5.07;;
3704;SDS011;1868;48.918;9.438;2023-01-19T15:03:56;12.80;;;9.40;;
3704;SDS011;1868;48.918;9.438;2023-01-19T15:06:25;9.87;;;6.13;;
3704;SDS011;1868;48.918;9.438;2023-01-19T15:08:54;7.80;;;6.37;;
3704;SDS011;1868;48.918;9.438;2023-01-19T15:11:23;8.10;;;6.07;;
3704;SDS011;1868;48.918;9.438;2023-01-19T15:13:55;9.70;;;6.20;;
3704;SDS011;1868;48.918;9.438;2023-01-19T15:16:27;7.10;;;6.40;;
3704;SDS011;1868;48.918;9.438;2023-01-19T15:18:59;7.57;;;5.53;;
3704;SDS011;1868;48.918;9.438;2023-01-19T15:21:27;6.77;;;5.30;;
3704;SDS011;1868;48.918;9.438;2023-01-19T15:23:55;8.37;;;5.93;;
3704;SDS011;1868;48.918;9.438;2023-01-19T15:26:25;9.13;;;6.97;;
3704;SDS011;1868;48.918;9.438;2023-01-19T15:28:54;7.63;;;6.20;;
3704;SDS011;1868;48.918;9.438;2023-01-19T15:31:23;10.87;;;5.43;;
3704;SDS011;1868;48.918;9.438;2023-01-19T15:33:54;6.47;;;5.10;;
3704;SDS011;1868;48.918;9.438;2023-01-19T15:36:23;6.17;;;5.20;;
3704;SDS011;1868;48.918;9.438;2023-01-19T15:38:52;8.80;;;6.43;;
3704;SDS011;1868;48.918;9.438;2023-01-19T15:41:22;6.93;;;5.77;;
3704;SDS011;1868;48.918;9.438;2023-01-19T15:43:55;14.63;;;6.37;;
3704;SDS011;1868;48.918;9.438;2023-01-19T15:46:23;7.97;;;6.07;;
3704;SDS011;1868;48.918;9.438;2023-01-19T15:48:53;8.70;;;6.33;;
3704;SDS011;1868;48.918;9.438;2023-01-19T15:51:23;8.17;;;5.00;;
3704;SDS011;1868;48.918;9.438;2023-01-19T15:53:52;7.00;;;5.83;;
3704;SDS011;1868;48.918;9.438;2023-01-19T15:56:22;9.47;;;5.67;;
3704;SDS011;1868;48.918;9.438;2023-01-19T15:58:52;6.87;;;5.70;;
3704;SDS011;1868;48.918;9.438;2023-01-19T16:01:22;8.00;;;6.60;;